sensor_id;sensor_type;location;lat;lon;timestamp;pressure;altitude;pressure_sealevel;temperature;humidity
30338;BME280;17143;51.888;5.408;2022-12-24T00:01:52;100398.59;;;10.31;100.00
30338;BME280;17143;51.888;5.408;2022-12-24T00:16:54;100416.97;;;10.34;100.00
30338;BME280;17143;51.888;5.408;2022-12-24T00:31:56;100448.66;;;10.26;100.00
30338;BME280;17143;51.888;5.408;2022-12-24T00:46:59;100470.06;;;10.20;100.00
30338;BME280;17143;51.888;5.408;2022-12-24T01:02:01;100495.88;;;10.16;100.00
30338;BME280;17143;51.888;5.408;2022-12-24T01:17:03;100515.28;;;10.06;100.00
30338;BME280;17143;51.888;5.408;2022-12-24T01:32:05;100541.94;;;9.85;100.00
30338;BME280;17143;51.888;5.408;2022-12-24T01:47:11;100540.00;;;9.64;100.00
30338;BME280;17143;51.888;5.408;2022-12-24T02:02:15;100565.25;;;9.51;100.00
30338;BME280;17143;51.888;5.408;2022-12-24T02:17:25;100594.00;;;9.38;100.00
30338;BME280;17143;51.888;5.408;2022-12-24T02:32:35;100591.72;;;9.28;100.00
30338;BME280;17143;51.888;5.408;2022-12-24T02:47:43;100590.84;;;9.27;100.00
30338;BME280;17143;51.888;5.408;2022-12-24T03:03:07;100606.44;;;9.27;100.00
30338;BME280;17143;51.888;5.408;2022-12-24T03:18:14;100602.34;;;9.16;100.00
30338;BME280;17143;51.888;5.408;2022-12-24T03:33:18;100620.75;;;9.35;100.00
30338;BME280;17143;51.888;5.408;2022-12-24T03:48:20;100632.09;;;9.68;100.00
30338;BME280;17143;51.888;5.408;2022-12-24T04:03:22;100638.44;;;9.89;100.00
30338;BME280;17143;51.888;5.408;2022-12-24T04:18:24;100644.44;;;10.04;100.00
30338;BME280;17143;51.888;5.408;2022-12-24T04:33:27;100661.56;;;10.15;100.00
30338;BME280;17143;51.888;5.408;2022-12-24T04:48:29;100662.44;;;10.32;100.00
30338;BME280;17143;51.888;5.408;2022-12-24T05:03:31;100678.78;;;10.46;100.00
30338;BME280;17143;51.888;5.408;2022-12-24T05:18:33;100672.16;;;10.52;100.00
30338;BME280;17143;51.888;5.408;2022-12-24T05:33:35;100690.78;;;10.60;100.00
30338;BME280;17143;51.888;5.408;2022-12-24T05:48:37;100688.69;;;10.53;100.00
30338;BME280;17143;51.888;5.408;2022-12-24T06:03:39;100714.91;;;10.56;100.00
30338;BME280;17143;51.888;5.408;2022-12-24T06:18:42;100730.53;;;10.56;100.00
30338;BME280;17143;51.888;5.408;2022-12-24T06:33:44;100731.66;;;10.61;100.00
30338;BME280;17143;51.888;5.408;2022-12-24T06:48:47;100736.78;;;10.59;100.00
30338;BME280;17143;51.888;5.408;2022-12-24T07:03:49;100745.19;;;10.54;100.00
30338;BME280;17143;51.888;5.408;2022-12-24T07:18:51;100778.88;;;10.34;100.00
30338;BME280;17143;51.888;5.408;2022-12-24T07:33:53;100803.25;;;10.20;100.00
30338;BME280;17143;51.888;5.408;2022-12-24T07:48:55;100830.19;;;10.06;100.00
30338;BME280;17143;51.888;5.408;2022-12-24T08:03:57;100860.53;;;10.20;100.00
30338;BME280;17143;51.888;5.408;2022-12-24T08:18:59;100885.47;;;10.31;100.00
30338;BME280;17143;51.888;5.408;2022-12-24T08:34:02;100890.19;;;10.38;100.00
30338;BME280;17143;51.888;5.408;2022-12-24T08:49:04;100916.13;;;10.68;100.00
30338;BME280;17143;51.888;5.408;2022-12-24T09:04:06;100944.47;;;11.42;100.00
30338;BME280;17143;51.888;5.408;2022-12-24T09:19:08;100966.22;;;12.09;100.00
30338;BME280;17143;51.888;5.408;2022-12-24T09:34:10;100993.53;;;11.33;100.00
30338;BME280;17143;51.888;5.408;2022-12-24T09:49:16;101020.75;;;11.54;100.00
30338;BME280;17143;51.888;5.408;2022-12-24T10:04:28;101016.78;;;12.11;100.00
30338;BME280;17143;51.888;5.408;2022-12-24T10:19:40;101035.50;;;12.36;100.00
30338;BME280;17143;51.888;5.408;2022-12-24T10:34:48;101032.94;;;12.55;100.00
30338;BME280;17143;51.888;5.408;2022-12-24T10:49:58;101022.94;;;12.29;100.00
30338;BME280;17143;51.888;5.408;2022-12-24T11:05:05;101042.28;;;11.99;100.00
30338;BME280;17143;51.888;5.408;2022-12-24T11:20:15;101037.50;;;11.90;100.00
30338;BME280;17143;51.888;5.408;2022-12-24T11:35:20;101050.59;;;11.92;100.00
30338;BME280;17143;51.888;5.408;2022-12-24T11:50:30;101060.63;;;12.00;100.00
30338;BME280;17143;51.888;5.408;2022-12-24T12:05:32;101069.56;;;11.88;100.00
30338;BME280;17143;51.888;5.408;2022-12-24T12:20:38;101085.56;;;11.94;100.00
30338;BME280;17143;51.888;5.408;2022-12-24T12:35:43;101094.19;;;11.93;100.00
30338;BME280;17143;51.888;5.408;2022-12-24T12:50:50;101105.28;;;11.89;100.00
30338;BME280;17143;51.888;5.408;2022-12-24T13:06:14;101114.56;;;12.16;100.00
30338;BME280;17143;51.888;5.408;2022-12-24T13:21:23;101122.19;;;12.29;100.00
30338;BME280;17143;51.888;5.408;2022-12-24T13:36:59;101141.91;;;12.06;100.00
30338;BME280;17143;51.888;5.408;2022-12-24T13:52:16;101151.63;;;11.93;100.00
30338;BME280;17143;51.888;5.408;2022-12-24T14:07:19;101176.97;;;11.79;100.00
30338;BME280;17143;51.888;5.408;2022-12-24T14:22:26;101174.47;;;11.81;100.00
30338;BME280;17143;51.888;5.408;2022-12-24T14:37:31;101198.34;;;11.57;100.00
30338;BME280;17143;51.888;5.408;2022-12-24T14:52:37;101199.88;;;11.23;100.00
30338;BME280;17143;51.888;5.408;2022-12-24T15:07:45;101219.97;;;10.95;100.00
30338;BME280;17143;51.888;5.408;2022-12-24T15:22:50;101243.50;;;10.67;100.00
30338;BME280;17143;51.888;5.408;2022-12-24T15:37:53;101253.97;;;10.39;100.00
30338;BME280;17143;51.888;5.408;2022-12-24T15:53:02;101250.66;;;10.14;100.00
30338;BME280;17143;51.888;5.408;2022-12-24T16:08:22;101270.50;;;9.99;100.00
30338;BME280;17143;51.888;5.408;2022-12-24T16:23:37;101265.94;;;9.82;100.00
30338;BME280;17143;51.888;5.408;2022-12-24T16:38:39;101279.34;;;9.75;100.00
30338;BME280;17143;51.888;5.408;2022-12-24T16:53:41;101284.97;;;9.55;100.00
30338;BME280;17143;51.888;5.408;2022-12-24T17:08:44;101282.47;;;9.30;100.00
30338;BME280;17143;51.888;5.408;2022-12-24T17:23:46;101278.16;;;9.04;100.00
30338;BME280;17143;51.888;5.408;2022-12-24T17:38:48;101276.94;;;8.86;100.00
30338;BME280;17143;51.888;5.408;2022-12-24T17:53:50;101272.91;;;8.78;100.00
30338;BME280;17143;51.888;5.408;2022-12-24T18:08:52;101277.69;;;8.72;100.00
30338;BME280;17143;51.888;5.408;2022-12-24T18:23:55;101276.56;;;8.69;100.00
30338;BME280;17143;51.888;5.408;2022-12-24T18:38:57;101285.66;;;8.62;100.00
30338;BME280;17143;51.888;5.408;2022-12-24T18:54:00;101284.03;;;8.64;100.00
30338;BME280;17143;51.888;5.408;2022-12-24T19:09:02;101298.63;;;8.62;100.00
30338;BME280;17143;51.888;5.408;2022-12-24T19:24:04;101290.41;;;8.56;100.00
30338;BME280;17143;51.888;5.408;2022-12-24T19:39:08;101280.28;;;8.47;100.00
30338;BME280;17143;51.888;5.408;2022-12-24T19:54:10;101296.00;;;8.49;100.00
30338;BME280;17143;51.888;5.408;2022-12-24T20:09:12;101308.06;;;8.48;100.00
30338;BME280;17143;51.888;5.408;2022-12-24T20:24:14;101313.56;;;8.53;100.00
30338;BME280;17143;51.888;5.408;2022-12-24T20:39:16;101304.59;;;8.61;100.00
30338;BME280;17143;51.888;5.408;2022-12-24T20:54:18;101295.34;;;8.65;100.00
30338;BME280;17143;51.888;5.408;2022-12-24T21:09:20;101271.84;;;8.63;100.00
30338;BME280;17143;51.888;5.408;2022-12-24T21:24:24;101269.63;;;8.56;100.00
30338;BME280;17143;51.888;5.408;2022-12-24T21:39:26;101260.53;;;8.49;100.00
30338;BME280;17143;51.888;5.408;2022-12-24T21:54:28;101235.28;;;8.47;100.00
30338;BME280;17143;51.888;5.408;2022-12-24T22:09:30;101248.31;;;8.35;100.00
30338;BME280;17143;51.888;5.408;2022-12-24T22:24:32;101237.16;;;8.25;100.00
30338;BME280;17143;51.888;5.408;2022-12-24T22:39:34;101241.13;;;8.20;100.00
30338;BME280;17143;51.888;5.408;2022-12-24T22:54:36;101256.25;;;8.14;100.00
30338;BME280;17143;51.888;5.408;2022-12-24T23:09:38;101273.84;;;8.18;100.00
30338;BME280;17143;51.888;5.408;2022-12-24T23:24:40;101288.72;;;8.32;100.00
30338;BME280;17143;51.888;5.408;2022-12-24T23:39:42;101299.97;;;8.44;100.00
30338;BME280;17143;51.888;5.408;2022-12-24T23:54:45;101271.03;;;8.51;100.00
